Terminal Aerodrome Forecast
Issued by NWS

Home | Current Version | Previous Version | Text Only | Print | Product List | Glossary On
Versions: 1 2 3 4 5 6 7 8 9 10 11 12 13 14 15
000
FTUS46 KMTR 220533
TAFSJC
TAF
KSJC 220533Z 2206/2306 30004KT P6SM SKC
     FM221100 14004KT P6SM FEW015
      TEMPO 2212/2216 6SM BR BKN008
     FM221800 31012KT P6SM SKC
     FM230300 32008KT P6SM SKC
     FM230500 02004KT P6SM SKC WS015/04030KT=

USA.gov is the U.S. government's official web portal to all federal, state and local government web resources and services.